createdAt,value
2018-07-01T00:00:56.059Z,101701.16
2018-07-01T00:03:25.442Z,101708.02
2018-07-01T00:05:54.246Z,101708.05
2018-07-01T00:08:23.042Z,101708.31
2018-07-01T00:10:52.588Z,101702.92
2018-07-01T00:13:21.785Z,101712.15
2018-07-01T00:15:51.391Z,101711.53
2018-07-01T00:18:20.197Z,101706.39
2018-07-01T00:20:49.574Z,101711.63
2018-07-01T00:23:18.694Z,101708.33
2018-07-01T00:25:47.885Z,101710.00
2018-07-01T00:28:17.047Z,101711.15
2018-07-01T00:30:45.841Z,101712.61
2018-07-01T00:33:14.870Z,101716.23
2018-07-01T00:35:43.619Z,101715.03
2018-07-01T00:38:12.770Z,101721.26
2018-07-01T00:40:41.671Z,101719.59
2018-07-01T00:43:10.930Z,101717.27
2018-07-01T00:45:39.924Z,101717.98
2018-07-01T00:48:09.426Z,101718.31
2018-07-01T00:50:38.215Z,101718.31
2018-07-01T00:53:07.436Z,101707.86
2018-07-01T00:55:36.279Z,101703.59
2018-07-01T00:58:05.376Z,101706.91
2018-07-01T01:00:34.984Z,101704.47
2018-07-01T01:03:04.545Z,101693.38
2018-07-01T01:05:33.864Z,101691.27
2018-07-01T01:08:02.755Z,101699.81
2018-07-01T01:10:31.863Z,101697.16
2018-07-01T01:13:00.654Z,101688.23
2018-07-01T01:15:29.807Z,101690.27
2018-07-01T01:17:58.918Z,101688.48
2018-07-01T01:20:28.083Z,101691.63
2018-07-01T01:22:57.275Z,101697.52
2018-07-01T01:25:26.349Z,101700.50
2018-07-01T01:27:55.367Z,101699.54
2018-07-01T01:30:24.593Z,101704.30
2018-07-01T01:38:47.552Z,101703.74
2018-07-01T01:41:30.587Z,101717.50
2018-07-01T01:44:03.645Z,101716.72
2018-07-01T01:46:37.726Z,101712.23
2018-07-01T01:49:12.466Z,101717.28
2018-07-01T01:51:46.224Z,101723.90
2018-07-01T01:54:19.528Z,101716.81
2018-07-01T01:57:00.820Z,101717.60
2018-07-01T01:59:33.784Z,101716.64
2018-07-01T02:03:08.415Z,101718.41
2018-07-01T02:05:43.903Z,101713.91
2018-07-01T02:08:17.189Z,101711.80
2018-07-01T02:10:46.423Z,101715.10
2018-07-01T02:13:15.555Z,101722.59
2018-07-01T02:15:50.499Z,101720.55
2018-07-01T02:18:19.643Z,101721.27
2018-07-01T02:20:48.679Z,101723.82
2018-07-01T02:23:28.398Z,101724.47
2018-07-01T02:25:57.209Z,101727.09
2018-07-01T02:28:26.276Z,101726.95
2018-07-01T02:30:55.707Z,101736.58
2018-07-01T02:33:24.474Z,101736.26
2018-07-01T02:35:53.684Z,101737.63
2018-07-01T02:38:22.735Z,101739.85
2018-07-01T02:40:51.947Z,101735.03
2018-07-01T02:43:20.764Z,101734.56
2018-07-01T02:45:49.547Z,101727.48
2018-07-01T02:48:18.362Z,101739.27
2018-07-01T02:50:47.154Z,101742.26
2018-07-01T02:53:15.958Z,101741.75
2018-07-01T02:55:45.499Z,101741.03
2018-07-01T02:58:14.282Z,101744.88
2018-07-01T03:00:43.076Z,101743.58
2018-07-01T03:03:12.272Z,101747.59
2018-07-01T03:05:41.598Z,101750.64
2018-07-01T03:08:10.337Z,101746.61
2018-07-01T03:10:39.415Z,101746.42
2018-07-01T03:13:08.540Z,101746.81
2018-07-01T03:15:37.296Z,101749.61
2018-07-01T03:18:06.455Z,101745.90
2018-07-01T03:20:35.458Z,101751.90
2018-07-01T03:23:04.295Z,101755.78
2018-07-01T03:25:33.110Z,101756.95
2018-07-01T03:28:02.079Z,101755.87
2018-07-01T03:30:31.114Z,101750.80
2018-07-01T03:33:00.260Z,101754.51
2018-07-01T03:35:29.473Z,101764.35
2018-07-01T03:37:58.852Z,101760.83
2018-07-01T03:40:28.202Z,101766.30
2018-07-01T03:42:57.339Z,101767.66
2018-07-01T03:45:26.344Z,101771.44
2018-07-01T03:47:55.313Z,101770.61
2018-07-01T03:50:24.448Z,101770.36
2018-07-01T03:52:53.220Z,101770.29
2018-07-01T03:55:22.030Z,101768.92
2018-07-01T03:57:51.004Z,101770.55
2018-07-01T04:00:20.151Z,101773.84
2018-07-01T04:02:49.210Z,101773.02
2018-07-01T04:05:17.981Z,101778.42
2018-07-01T04:07:46.975Z,101780.67
2018-07-01T04:10:15.742Z,101783.95
2018-07-01T04:12:44.578Z,101774.58
2018-07-01T04:15:13.899Z,101781.81
2018-07-01T04:17:43.135Z,101774.77
2018-07-01T04:20:11.958Z,101776.80
2018-07-01T04:22:40.737Z,101773.17
2018-07-01T04:25:10.122Z,101779.68
2018-07-01T04:27:38.919Z,101781.30
2018-07-01T04:30:07.738Z,101782.85
2018-07-01T04:32:36.552Z,101782.21
2018-07-01T04:35:05.579Z,101781.35
2018-07-01T04:37:34.787Z,101784.62
2018-07-01T04:40:03.908Z,101787.22
2018-07-01T04:42:33.011Z,101784.11
2018-07-01T04:45:02.726Z,101788.07
2018-07-01T04:47:31.494Z,101790.13
2018-07-01T04:50:00.980Z,101786.11
2018-07-01T04:52:30.113Z,101787.41
2018-07-01T04:54:59.268Z,101792.41
2018-07-01T04:57:28.832Z,101801.52
2018-07-01T04:59:58.565Z,101797.27
2018-07-01T05:02:28.720Z,101802.53
2018-07-01T05:04:57.818Z,101805.05
2018-07-01T05:07:27.322Z,101810.05
2018-07-01T05:09:56.644Z,101809.26
2018-07-01T05:12:25.492Z,101809.53
2018-07-01T05:14:55.006Z,101810.93
2018-07-01T05:17:24.541Z,101812.29
2018-07-01T05:19:53.355Z,101810.61
2018-07-01T05:22:22.511Z,101810.38
2018-07-01T05:24:51.487Z,101809.57
2018-07-01T05:27:20.444Z,101814.81
2018-07-01T05:29:49.469Z,101809.02
2018-07-01T05:32:18.322Z,101813.58
2018-07-01T05:34:47.809Z,101814.71
2018-07-01T05:37:16.709Z,101819.04
2018-07-01T05:39:46.309Z,101811.94
2018-07-01T05:42:15.510Z,101819.61
2018-07-01T05:44:44.694Z,101816.91
2018-07-01T05:47:13.530Z,101819.39
2018-07-01T05:49:42.912Z,101813.89
2018-07-01T05:52:12.182Z,101815.38
2018-07-01T05:54:41.020Z,101812.73
2018-07-01T05:57:10.131Z,101817.28
2018-07-01T05:59:39.249Z,101809.37
2018-07-01T06:02:08.352Z,101814.83
2018-07-01T06:04:37.838Z,101821.11
2018-07-01T06:07:06.795Z,101816.64
2018-07-01T06:09:36.111Z,101821.55
2018-07-01T06:12:05.268Z,101822.63
2018-07-01T06:14:34.176Z,101829.45
2018-07-01T06:17:03.645Z,101819.44
2018-07-01T06:19:32.461Z,101819.14
2018-07-01T06:22:01.636Z,101823.23
2018-07-01T06:24:30.442Z,101825.47
2018-07-01T06:26:59.689Z,101819.33
2018-07-01T06:29:29.287Z,101818.66
2018-07-01T06:31:58.922Z,101818.81
2018-07-01T06:34:28.092Z,101816.97
2018-07-01T06:36:57.238Z,101815.95
2018-07-01T06:39:26.122Z,101824.59
2018-07-01T06:41:55.238Z,101828.01
2018-07-01T06:44:24.622Z,101837.19
2018-07-01T06:46:54.422Z,101834.77
2018-07-01T06:49:23.760Z,101837.25
2018-07-01T06:51:53.174Z,101841.14
2018-07-01T06:54:22.094Z,101835.62
2018-07-01T06:56:51.369Z,101838.98
2018-07-01T06:59:21.396Z,101834.95
2018-07-01T07:01:51.321Z,101846.20
2018-07-01T07:04:21.405Z,101840.73
2018-07-01T07:06:52.153Z,101841.91
2018-07-01T07:09:23.259Z,101840.25
2018-07-01T07:11:53.127Z,101840.63
2018-07-01T07:14:23.785Z,101848.95
2018-07-01T07:16:54.067Z,101849.64
2018-07-01T07:19:24.877Z,101840.01
2018-07-01T07:21:56.286Z,101847.23
2018-07-01T07:24:26.635Z,101837.75
2018-07-01T07:26:58.294Z,101838.94
2018-07-01T07:29:29.014Z,101836.32
2018-07-01T07:31:59.795Z,101833.56
2018-07-01T07:34:30.577Z,101827.39
2018-07-01T07:37:00.730Z,101830.33
2018-07-01T07:39:29.920Z,101836.23
2018-07-01T07:41:59.353Z,101837.20
2018-07-01T07:44:28.626Z,101841.62
2018-07-01T07:46:57.791Z,101834.56
2018-07-01T07:49:27.218Z,101837.19
2018-07-01T07:51:56.877Z,101831.23
2018-07-01T07:54:25.774Z,101832.97
2018-07-01T07:56:55.578Z,101836.02
2018-07-01T07:59:24.504Z,101840.55
2018-07-01T08:01:54.331Z,101844.77
2018-07-01T08:04:23.281Z,101841.86
2018-07-01T08:06:52.592Z,101841.82
2018-07-01T08:09:22.193Z,101837.18
2018-07-01T08:11:51.162Z,101840.76
2018-07-01T08:14:20.318Z,101838.80
2018-07-01T08:16:49.785Z,101835.69
2018-07-01T08:19:20.102Z,101833.25
2018-07-01T08:21:48.980Z,101842.67
2018-07-01T08:24:18.441Z,101840.98
2018-07-01T08:26:47.355Z,101832.19
2018-07-01T08:29:16.201Z,101835.91
2018-07-01T08:31:45.395Z,101830.44
2018-07-01T08:34:14.537Z,101829.80
2018-07-01T08:36:44.167Z,101830.63
2018-07-01T08:39:14.227Z,101835.59
2018-07-01T08:42:32.666Z,101833.02
2018-07-01T08:45:02.953Z,101825.77
2018-07-01T08:47:32.332Z,101829.38
2018-07-01T08:50:01.851Z,101820.20
2018-07-01T08:52:31.444Z,101822.00
2018-07-01T08:55:00.772Z,101832.30
2018-07-01T08:57:29.987Z,101833.81
2018-07-01T08:59:59.460Z,101835.00
2018-07-01T09:02:28.522Z,101826.63
2018-07-01T09:04:57.431Z,101824.30
2018-07-01T09:07:26.695Z,101832.34
2018-07-01T09:09:55.864Z,101834.89
2018-07-01T09:12:24.796Z,101843.12
2018-07-01T09:14:54.099Z,101834.74
2018-07-01T09:17:23.064Z,101846.84
2018-07-01T09:19:52.972Z,101843.39
2018-07-01T09:22:21.835Z,101835.91
2018-07-01T09:24:50.841Z,101840.39
2018-07-01T09:27:20.160Z,101830.23
2018-07-01T09:29:54.194Z,101830.77
2018-07-01T09:32:23.013Z,101833.63
2018-07-01T09:34:52.187Z,101844.03
2018-07-01T09:37:21.101Z,101831.55
2018-07-01T09:39:50.255Z,101834.77
2018-07-01T09:42:19.586Z,101831.16
2018-07-01T09:44:48.636Z,101836.02
2018-07-01T09:47:17.558Z,101836.44
2018-07-01T09:49:46.892Z,101841.05
2018-07-01T09:52:16.124Z,101841.00
2018-07-01T09:54:45.403Z,101843.86
2018-07-01T09:57:15.128Z,101841.08
2018-07-01T09:59:44.658Z,101829.63
2018-07-01T10:02:14.127Z,101827.09
2018-07-01T10:04:43.217Z,101822.48
2018-07-01T10:07:12.040Z,101826.14
2018-07-01T10:09:41.077Z,101839.34
2018-07-01T10:12:09.967Z,101831.76
2018-07-01T10:14:38.953Z,101826.92
2018-07-01T10:17:08.370Z,101829.34
2018-07-01T10:19:37.836Z,101831.81
2018-07-01T10:22:07.360Z,101837.22
2018-07-01T10:24:36.441Z,101825.02
2018-07-01T10:27:05.325Z,101813.39
2018-07-01T10:29:34.395Z,101809.12
2018-07-01T10:32:03.604Z,101822.88
2018-07-01T10:34:33.192Z,101822.30
2018-07-01T10:37:03.299Z,101819.55
2018-07-01T10:39:32.529Z,101817.34
2018-07-01T10:42:01.793Z,101826.48
2018-07-01T10:44:31.451Z,101818.31
2018-07-01T10:47:00.723Z,101817.00
2018-07-01T10:49:29.627Z,101825.70
2018-07-01T10:51:59.395Z,101807.88
2018-07-01T10:54:28.553Z,101819.91
2018-07-01T10:56:57.789Z,101806.81
2018-07-01T10:59:27.410Z,101800.91
2018-07-01T11:01:56.840Z,101795.95
2018-07-01T11:04:25.729Z,101800.34
2018-07-01T11:06:55.129Z,101794.38
2018-07-01T11:09:24.055Z,101791.00
2018-07-01T11:11:53.000Z,101796.79
2018-07-01T11:14:21.938Z,101796.18
2018-07-01T11:16:51.095Z,101805.53
2018-07-01T11:19:20.031Z,101805.53
2018-07-01T11:21:48.899Z,101791.39
2018-07-01T11:24:17.890Z,101794.73
2018-07-01T11:26:47.282Z,101786.12
2018-07-01T11:29:16.697Z,101787.11
2018-07-01T11:31:47.432Z,101798.30
2018-07-01T11:34:16.424Z,101796.88
2018-07-01T11:36:45.468Z,101796.35
2018-07-01T11:39:14.717Z,101793.97
2018-07-01T11:41:43.580Z,101797.11
2018-07-01T11:44:13.234Z,101786.68
2018-07-01T11:46:42.688Z,101793.33
2018-07-01T11:49:11.756Z,101781.97
2018-07-01T11:51:40.665Z,101779.03
2018-07-01T11:54:09.656Z,101783.90
2018-07-01T11:56:39.251Z,101770.16
2018-07-01T11:59:08.542Z,101770.16
2018-07-01T12:01:37.387Z,101772.98
2018-07-01T12:04:06.967Z,101787.24
2018-07-01T12:06:37.697Z,101777.78
2018-07-01T12:09:10.250Z,101774.83
2018-07-01T12:11:39.221Z,101775.69
2018-07-01T12:14:08.104Z,101762.70
2018-07-01T12:16:37.563Z,101762.56
2018-07-01T12:19:06.674Z,101770.23
2018-07-01T12:21:35.947Z,101777.93
2018-07-01T12:24:05.343Z,101758.89
2018-07-01T12:26:34.581Z,101753.48
2018-07-01T12:29:03.729Z,101762.48
2018-07-01T12:31:32.904Z,101754.27
2018-07-01T12:34:01.952Z,101767.81
2018-07-01T12:36:31.460Z,101751.08
2018-07-01T12:39:00.427Z,101757.81
2018-07-01T12:41:30.181Z,101762.44
2018-07-01T12:43:59.011Z,101766.00
2018-07-01T12:46:28.262Z,101756.86
2018-07-01T12:48:57.104Z,101762.04
2018-07-01T12:51:25.935Z,101749.66
2018-07-01T12:53:55.993Z,101749.23
2018-07-01T12:56:25.513Z,101744.22
2018-07-01T12:58:54.347Z,101745.83
2018-07-01T13:01:23.532Z,101752.27
2018-07-01T13:03:52.675Z,101745.55
2018-07-01T13:06:21.772Z,101736.97
2018-07-01T13:08:51.238Z,101741.17
2018-07-01T13:11:20.145Z,101740.36
2018-07-01T13:13:49.066Z,101736.97
2018-07-01T13:16:18.473Z,101727.49
2018-07-01T13:18:48.004Z,101735.34
2018-07-01T13:21:16.903Z,101733.00
2018-07-01T13:23:45.781Z,101718.50
2018-07-01T13:26:15.017Z,101715.66
2018-07-01T13:28:43.966Z,101709.82
2018-07-01T13:31:12.910Z,101711.39
2018-07-01T13:33:42.051Z,101713.49
2018-07-01T13:36:11.212Z,101706.79
2018-07-01T13:38:40.107Z,101704.28
2018-07-01T13:41:08.957Z,101698.56
2018-07-01T13:43:38.718Z,101707.95
2018-07-01T13:46:08.354Z,101693.88
2018-07-01T13:48:37.416Z,101694.97
2018-07-01T13:51:06.916Z,101700.41
2018-07-01T13:53:35.764Z,101694.70
2018-07-01T13:56:04.914Z,101695.77
2018-07-01T13:58:33.845Z,101696.81
2018-07-01T14:01:02.905Z,101695.52
2018-07-01T14:03:32.164Z,101683.05
2018-07-01T14:06:01.040Z,101686.08
2018-07-01T14:08:30.012Z,101688.02
2018-07-01T14:10:59.161Z,101693.15
2018-07-01T14:13:28.475Z,101684.03
2018-07-01T14:15:57.609Z,101674.73
2018-07-01T14:18:27.215Z,101685.70
2018-07-01T14:20:56.652Z,101681.33
2018-07-01T14:23:25.961Z,101677.48
2018-07-01T14:25:55.099Z,101681.07
2018-07-01T14:28:24.051Z,101673.42
2018-07-01T14:30:53.756Z,101663.19
2018-07-01T14:33:23.316Z,101660.14
2018-07-01T14:35:52.843Z,101660.69
2018-07-01T14:38:21.751Z,101666.80
2018-07-01T14:40:51.424Z,101667.80
2018-07-01T14:43:21.077Z,101654.37
2018-07-01T14:45:49.954Z,101650.34
2018-07-01T14:48:19.290Z,101652.27
2018-07-01T14:50:48.514Z,101641.61
2018-07-01T14:53:17.368Z,101643.67
2018-07-01T14:55:46.418Z,101643.37
2018-07-01T14:58:15.670Z,101648.09
2018-07-01T15:00:45.035Z,101636.32
2018-07-01T15:03:13.905Z,101640.19
2018-07-01T15:05:43.134Z,101640.64
2018-07-01T15:08:12.560Z,101631.95
2018-07-01T15:10:41.735Z,101634.55
2018-07-01T15:13:11.012Z,101633.46
2018-07-01T15:15:40.146Z,101618.40
2018-07-01T15:18:09.182Z,101615.53
2018-07-01T15:20:39.216Z,101609.75
2018-07-01T15:23:08.383Z,101615.16
2018-07-01T15:25:37.503Z,101616.24
2018-07-01T15:28:07.219Z,101596.09
2018-07-01T15:30:36.548Z,101602.40
2018-07-01T15:33:05.442Z,101602.49
2018-07-01T15:35:34.627Z,101600.25
2018-07-01T15:38:03.506Z,101603.63
2018-07-01T15:40:33.245Z,101602.36
2018-07-01T15:43:02.176Z,101597.70
2018-07-01T15:45:31.826Z,101596.05
2018-07-01T15:48:01.007Z,101605.86
2018-07-01T15:50:30.933Z,101602.99
2018-07-01T15:53:00.001Z,101593.82
2018-07-01T15:55:29.015Z,101600.91
2018-07-01T15:57:58.504Z,101601.87
2018-07-01T16:00:28.308Z,101589.44
2018-07-01T16:03:02.144Z,101595.49
2018-07-01T16:05:31.348Z,101589.66
2018-07-01T16:08:00.188Z,101588.88
2018-07-01T16:10:29.667Z,101587.80
2018-07-01T16:12:58.880Z,101584.63
2018-07-01T16:15:28.069Z,101585.56
2018-07-01T16:17:56.911Z,101579.19
2018-07-01T16:20:26.151Z,101586.42
2018-07-01T16:22:54.992Z,101591.47
2018-07-01T16:25:29.079Z,101583.39
2018-07-01T16:28:03.058Z,101582.75
2018-07-01T16:30:31.894Z,101576.70
2018-07-01T16:33:01.131Z,101577.59
2018-07-01T16:35:30.209Z,101584.45
2018-07-01T16:37:59.367Z,101577.62
2018-07-01T16:40:28.602Z,101583.77
2018-07-01T16:42:57.999Z,101575.89
2018-07-01T16:45:27.567Z,101577.62
2018-07-01T16:47:56.953Z,101570.19
2018-07-01T16:50:26.550Z,101563.14
2018-07-01T16:52:55.914Z,101559.50
2018-07-01T16:55:25.198Z,101559.09
2018-07-01T16:57:54.276Z,101566.47
2018-07-01T17:00:23.331Z,101567.66
2018-07-01T17:02:52.631Z,101562.70
2018-07-01T17:05:22.372Z,101561.10
2018-07-01T17:07:51.751Z,101558.97
2018-07-01T17:10:20.994Z,101564.12
2018-07-01T17:12:51.202Z,101564.05
2018-07-01T17:15:20.791Z,101562.66
2018-07-01T17:17:49.824Z,101569.42
2018-07-01T17:20:18.712Z,101567.19
2018-07-01T17:22:47.878Z,101565.68
2018-07-01T17:25:16.818Z,101559.95
2018-07-01T17:27:46.038Z,101566.36
2018-07-01T17:30:15.330Z,101572.11
2018-07-01T17:32:49.955Z,101565.55
2018-07-01T17:35:18.913Z,101567.19
2018-07-01T17:37:48.315Z,101571.16
2018-07-01T17:40:17.982Z,101560.02
2018-07-01T17:42:47.088Z,101561.59
2018-07-01T17:45:15.943Z,101567.50
2018-07-01T17:47:45.890Z,101556.18
2018-07-01T17:50:14.844Z,101556.93
2018-07-01T17:52:43.886Z,101559.69
2018-07-01T17:55:13.228Z,101564.41
2018-07-01T17:57:42.780Z,101562.18
2018-07-01T18:00:12.067Z,101557.38
2018-07-01T18:02:41.515Z,101560.50
2018-07-01T18:05:10.744Z,101571.38
2018-07-01T18:07:40.051Z,101564.86
2018-07-01T18:10:09.288Z,101568.02
2018-07-01T18:12:38.576Z,101570.34
2018-07-01T18:15:07.602Z,101577.14
2018-07-01T18:17:36.764Z,101574.97
2018-07-01T18:20:06.052Z,101570.14
2018-07-01T18:23:00.803Z,101575.06
2018-07-01T18:25:09.842Z,101572.77
2018-07-01T18:27:34.838Z,101570.17
2018-07-01T18:30:02.801Z,101577.11
2018-07-01T18:32:32.114Z,101568.19
2018-07-01T18:35:02.007Z,101565.77
2018-07-01T18:37:30.992Z,101574.84
2018-07-01T18:40:00.454Z,101573.23
2018-07-01T18:42:29.333Z,101578.01
2018-07-01T18:44:58.411Z,101573.70
2018-07-01T18:47:27.991Z,101572.95
2018-07-01T18:49:57.641Z,101572.56
2018-07-01T18:52:26.507Z,101571.53
2018-07-01T18:54:55.361Z,101569.89
2018-07-01T18:57:24.296Z,101573.98
2018-07-01T18:59:53.149Z,101579.45
2018-07-01T19:02:22.398Z,101581.52
2018-07-01T19:04:51.621Z,101580.69
2018-07-01T19:07:20.593Z,101574.49
2018-07-01T19:09:49.456Z,101577.58
2018-07-01T19:12:19.011Z,101580.30
2018-07-01T19:14:47.921Z,101580.25
2018-07-01T19:17:16.898Z,101581.27
2018-07-01T19:19:45.806Z,101581.22
2018-07-01T19:22:14.781Z,101584.06
2018-07-01T19:24:43.606Z,101592.27
2018-07-01T19:27:12.946Z,101598.80
2018-07-01T19:29:42.030Z,101598.38
2018-07-01T19:32:12.004Z,101603.13
2018-07-01T19:34:41.562Z,101604.25
2018-07-01T19:37:10.833Z,101607.33
2018-07-01T19:39:40.266Z,101605.45
2018-07-01T19:42:10.065Z,101609.37
2018-07-01T19:44:39.596Z,101603.94
2018-07-01T19:47:08.788Z,101607.84
2018-07-01T19:49:37.724Z,101602.58
2018-07-01T19:52:07.284Z,101608.25
2018-07-01T19:54:36.459Z,101601.95
2018-07-01T19:57:05.670Z,101602.86
2018-07-01T19:59:34.519Z,101600.98
2018-07-01T20:02:03.926Z,101612.96
2018-07-01T20:04:33.377Z,101614.62
2018-07-01T20:07:03.289Z,101618.09
2018-07-01T20:09:32.412Z,101617.58
2018-07-01T20:12:01.288Z,101620.16
2018-07-01T20:14:30.522Z,101622.05
2018-07-01T20:16:59.441Z,101622.95
2018-07-01T20:19:28.340Z,101633.91
2018-07-01T20:21:57.281Z,101625.44
2018-07-01T20:24:26.724Z,101632.63
2018-07-01T20:26:55.965Z,101630.42
2018-07-01T20:29:24.910Z,101630.23
2018-07-01T20:31:53.872Z,101630.91
2018-07-01T20:34:23.426Z,101624.28
2018-07-01T20:36:52.623Z,101630.89
2018-07-01T20:39:22.060Z,101627.22
2018-07-01T20:41:51.178Z,101635.34
2018-07-01T20:44:20.111Z,101635.22
2018-07-01T20:46:49.478Z,101639.98
2018-07-01T20:49:18.773Z,101642.16
2018-07-01T20:51:47.763Z,101640.28
2018-07-01T20:54:17.232Z,101647.32
2018-07-01T20:56:46.394Z,101648.16
2018-07-01T20:59:16.011Z,101648.34
2018-07-01T21:01:45.342Z,101649.86
2018-07-01T21:04:14.694Z,101654.92
2018-07-01T21:06:43.877Z,101652.58
2018-07-01T21:09:13.112Z,101658.66
2018-07-01T21:11:43.310Z,101661.40
2018-07-01T21:14:13.520Z,101655.87
2018-07-01T21:16:42.852Z,101659.36
2018-07-01T21:19:12.400Z,101661.93
2018-07-01T21:21:41.634Z,101665.78
2018-07-01T21:24:10.835Z,101665.25
2018-07-01T21:26:39.930Z,101666.02
2018-07-01T21:29:09.555Z,101672.54
2018-07-01T21:31:38.569Z,101671.67
2018-07-01T21:34:07.469Z,101672.52
2018-07-01T21:36:36.625Z,101674.88
2018-07-01T21:39:08.253Z,101678.44
2018-07-01T21:41:38.774Z,101678.59
2018-07-01T21:44:08.705Z,101677.70
2018-07-01T21:46:38.302Z,101679.38
2018-07-01T21:49:08.899Z,101683.41
2018-07-01T21:51:38.178Z,101687.12
2018-07-01T21:54:07.662Z,101687.28
2018-07-01T21:56:37.178Z,101685.01
2018-07-01T21:59:06.936Z,101677.11
2018-07-01T22:01:37.202Z,101678.52
2018-07-01T22:04:06.740Z,101676.55
2018-07-01T22:06:41.891Z,101676.90
2018-07-01T22:09:11.268Z,101678.97
2018-07-01T22:11:55.087Z,101675.67
2018-07-01T22:14:27.970Z,101675.89
2018-07-01T22:16:57.353Z,101677.84
2018-07-01T22:19:26.456Z,101685.72
2018-07-01T22:21:56.575Z,101691.04
2018-07-01T22:24:28.919Z,101689.51
2018-07-01T22:26:59.121Z,101692.36
2018-07-01T22:29:28.476Z,101689.94
2018-07-01T22:31:57.912Z,101691.64
2018-07-01T22:34:27.326Z,101686.64
2018-07-01T22:36:58.777Z,101686.73
2018-07-01T22:39:31.808Z,101696.89
2018-07-01T22:42:06.525Z,101686.45
2018-07-01T22:44:36.340Z,101697.87
2018-07-01T22:47:05.319Z,101693.66
2018-07-01T22:49:34.789Z,101696.05
2018-07-01T22:52:05.540Z,101696.59
2018-07-01T22:54:37.849Z,101699.02
2018-07-01T22:57:07.825Z,101696.84
2018-07-01T22:59:39.424Z,101701.36
2018-07-01T23:03:21.667Z,101700.41
2018-07-01T23:05:52.014Z,101696.92
2018-07-01T23:08:21.354Z,101702.15
2018-07-01T23:10:50.947Z,101695.48
2018-07-01T23:13:20.688Z,101698.17
2018-07-01T23:15:49.977Z,101695.33
2018-07-01T23:18:19.340Z,101691.80
2018-07-01T23:20:48.826Z,101696.10
2018-07-01T23:23:18.037Z,101700.89
2018-07-01T23:25:47.407Z,101704.17
2018-07-01T23:28:17.226Z,101700.34
2018-07-01T23:30:46.589Z,101699.98
2018-07-01T23:33:15.960Z,101696.66
2018-07-01T23:35:45.584Z,101698.78
2018-07-01T23:38:14.776Z,101688.19
2018-07-01T23:40:43.949Z,101686.03
2018-07-01T23:43:13.227Z,101685.78
2018-07-01T23:45:42.762Z,101688.37
2018-07-01T23:48:12.395Z,101680.45
2018-07-01T23:50:41.494Z,101673.01
2018-07-01T23:53:10.947Z,101672.55
2018-07-01T23:55:39.924Z,101685.77
2018-07-01T23:58:09.660Z,101680.16
